createdAt,value
2017-01-25T00:00:26.942Z,1024.55
2017-01-25T00:01:26.909Z,1024.57
2017-01-25T00:02:26.881Z,1024.55
2017-01-25T00:03:26.852Z,1024.49
2017-01-25T00:04:26.835Z,1024.48
2017-01-25T00:05:26.794Z,1024.51
2017-01-25T00:06:26.769Z,1024.51
2017-01-25T00:07:26.737Z,1024.51
2017-01-25T00:08:26.708Z,1024.57
2017-01-25T00:09:26.679Z,1024.59
2017-01-25T00:10:26.652Z,1024.58
2017-01-25T00:11:26.622Z,1024.56
2017-01-25T00:12:26.593Z,1024.58
2017-01-25T00:13:26.566Z,1024.59
2017-01-25T00:14:26.535Z,1024.54
2017-01-25T00:15:26.507Z,1024.52
2017-01-25T00:16:26.477Z,1024.53
2017-01-25T00:17:26.450Z,1024.6
2017-01-25T00:18:26.420Z,1024.61
2017-01-25T00:19:26.390Z,1024.58
2017-01-25T00:20:26.362Z,1024.57
2017-01-25T00:21:26.332Z,1024.52
2017-01-25T00:22:26.304Z,1024.52
2017-01-25T00:23:26.277Z,1024.5
2017-01-25T00:24:26.247Z,1024.52
2017-01-25T00:25:26.221Z,1024.54
2017-01-25T00:26:26.188Z,1024.49
2017-01-25T00:27:26.167Z,1024.53
2017-01-25T00:28:26.131Z,1024.53
2017-01-25T00:29:26.102Z,1024.57
2017-01-25T00:30:26.074Z,1024.52
2017-01-25T00:31:26.046Z,1024.58
2017-01-25T00:32:26.066Z,1024.61
2017-01-25T00:33:25.990Z,1024.66
2017-01-25T00:34:25.958Z,1024.62
2017-01-25T00:35:25.929Z,1024.59
2017-01-25T00:36:25.898Z,1024.63
2017-01-25T00:37:25.867Z,1024.62
2017-01-25T00:38:25.839Z,1024.66
2017-01-25T00:39:25.812Z,1024.68
2017-01-25T00:40:25.782Z,1024.66
2017-01-25T00:41:25.753Z,1024.7
2017-01-25T00:42:25.722Z,1024.69
2017-01-25T00:43:25.696Z,1024.76
2017-01-25T00:44:25.667Z,1024.71
2017-01-25T00:45:25.636Z,1024.69
2017-01-25T00:46:25.607Z,1024.68
2017-01-25T00:47:25.578Z,1024.73
2017-01-25T00:48:25.550Z,1024.7
2017-01-25T00:49:25.517Z,1024.72
2017-01-25T00:50:25.490Z,1024.67
2017-01-25T00:51:25.461Z,1024.68
2017-01-25T00:52:25.436Z,1024.68
2017-01-25T00:53:25.407Z,1024.7
2017-01-25T00:54:25.378Z,1024.68
2017-01-25T00:55:25.345Z,1024.63
2017-01-25T00:56:25.317Z,1024.67
2017-01-25T00:57:25.288Z,1024.65
2017-01-25T00:58:25.267Z,1024.69
2017-01-25T00:59:25.233Z,1024.68
2017-01-25T01:00:25.200Z,1024.71
2017-01-25T01:01:25.173Z,1024.73
2017-01-25T01:02:25.152Z,1024.74
2017-01-25T01:03:25.118Z,1024.74
2017-01-25T01:04:25.086Z,1024.72
2017-01-25T01:05:25.054Z,1024.78
2017-01-25T01:06:25.027Z,1024.74
2017-01-25T01:07:24.995Z,1024.74
2017-01-25T01:08:24.967Z,1024.79
2017-01-25T01:09:24.937Z,1024.81
2017-01-25T01:10:24.909Z,1024.78
2017-01-25T01:11:24.880Z,1024.83
2017-01-25T01:12:24.851Z,1024.85
2017-01-25T01:13:24.821Z,1024.87
2017-01-25T01:14:24.791Z,1024.85
2017-01-25T01:15:24.762Z,1024.82
2017-01-25T01:16:24.732Z,1024.85
2017-01-25T01:17:24.703Z,1024.83
2017-01-25T01:18:24.673Z,1024.78
2017-01-25T01:19:24.643Z,1024.82
2017-01-25T01:20:24.613Z,1024.82
2017-01-25T01:21:24.585Z,1024.76
2017-01-25T01:22:24.555Z,1024.8
2017-01-25T01:23:24.526Z,1024.79
2017-01-25T01:24:24.497Z,1024.76
2017-01-25T01:25:24.468Z,1024.74
2017-01-25T01:26:24.439Z,1024.78
2017-01-25T01:27:24.409Z,1024.75
2017-01-25T01:28:24.380Z,1024.78
2017-01-25T01:29:24.349Z,1024.78
2017-01-25T01:30:24.321Z,1024.76
2017-01-25T01:31:24.318Z,1024.8
2017-01-25T01:32:24.265Z,1024.73
2017-01-25T01:33:24.231Z,1024.69
2017-01-25T01:34:24.204Z,1024.73
2017-01-25T01:35:24.173Z,1024.76
2017-01-25T01:36:24.144Z,1024.75
2017-01-25T01:37:24.114Z,1024.75
2017-01-25T01:38:24.089Z,1024.74
2017-01-25T01:39:24.057Z,1024.67
2017-01-25T01:40:24.330Z,1024.68
2017-01-25T01:41:23.996Z,1024.64
2017-01-25T01:42:23.971Z,1024.65
2017-01-25T01:43:23.937Z,1024.6
2017-01-25T01:44:23.906Z,1024.6
2017-01-25T01:45:23.881Z,1024.57
2017-01-25T01:46:23.849Z,1024.56
2017-01-25T01:47:23.821Z,1024.53
2017-01-25T01:48:23.792Z,1024.53
2017-01-25T01:49:23.760Z,1024.47
2017-01-25T01:50:23.729Z,1024.51
2017-01-25T01:51:23.700Z,1024.52
2017-01-25T01:52:23.671Z,1024.52
2017-01-25T01:53:23.644Z,1024.54
2017-01-25T01:54:23.614Z,1024.56
2017-01-25T01:55:23.583Z,1024.58
2017-01-25T01:56:23.581Z,1024.53
2017-01-25T01:57:23.523Z,1024.55
2017-01-25T01:58:23.492Z,1024.57
2017-01-25T01:59:23.463Z,1024.62
2017-01-25T02:00:23.436Z,1024.59
2017-01-25T02:01:23.404Z,1024.64
2017-01-25T02:02:23.381Z,1024.6
2017-01-25T02:03:23.341Z,1024.56
2017-01-25T02:04:23.318Z,1024.64
2017-01-25T02:05:23.285Z,1024.65
2017-01-25T02:06:23.253Z,1024.66
2017-01-25T02:07:23.219Z,1024.7
2017-01-25T02:08:23.196Z,1024.61
2017-01-25T02:09:23.193Z,1024.61
2017-01-25T02:10:23.136Z,1024.62
2017-01-25T02:11:23.101Z,1024.59
2017-01-25T02:12:23.078Z,1024.66
2017-01-25T02:13:23.097Z,1024.69
2017-01-25T02:14:23.018Z,1024.68
2017-01-25T02:15:22.986Z,1024.75
2017-01-25T02:16:22.958Z,1024.73
2017-01-25T02:17:22.926Z,1024.77
2017-01-25T02:18:22.897Z,1024.83
2017-01-25T02:19:22.872Z,1024.8
2017-01-25T02:20:22.837Z,1024.8
2017-01-25T02:21:22.805Z,1024.82
2017-01-25T02:22:22.777Z,1024.84
2017-01-25T02:23:22.750Z,1024.89
2017-01-25T02:24:22.716Z,1024.9
2017-01-25T02:25:22.690Z,1024.9
2017-01-25T02:26:22.660Z,1024.86
2017-01-25T02:27:22.629Z,1024.94
2017-01-25T02:28:22.596Z,1024.94
2017-01-25T02:29:22.568Z,1024.88
2017-01-25T02:30:22.543Z,1024.89
2017-01-25T02:31:22.557Z,1024.86
2017-01-25T02:32:22.481Z,1024.91
2017-01-25T02:33:22.449Z,1024.9
2017-01-25T02:34:22.416Z,1024.89
2017-01-25T02:35:22.389Z,1024.88
2017-01-25T02:36:22.358Z,1024.9
2017-01-25T02:37:22.329Z,1024.88
2017-01-25T02:38:22.297Z,1024.87
2017-01-25T02:39:22.268Z,1024.84
2017-01-25T02:40:22.244Z,1024.79
2017-01-25T02:41:22.207Z,1024.85
2017-01-25T02:42:22.175Z,1024.79
2017-01-25T02:43:22.148Z,1024.82
2017-01-25T02:44:22.165Z,1024.83
2017-01-25T02:45:22.089Z,1024.83
2017-01-25T02:46:22.059Z,1024.79
2017-01-25T02:47:22.025Z,1024.79
2017-01-25T02:48:21.997Z,1024.78
2017-01-25T02:49:21.974Z,1024.73
2017-01-25T02:50:21.936Z,1024.75
2017-01-25T02:51:21.907Z,1024.73
2017-01-25T02:52:21.877Z,1024.72
2017-01-25T02:53:21.850Z,1024.76
2017-01-25T02:54:21.815Z,1024.78
2017-01-25T02:55:21.790Z,1024.78
2017-01-25T02:56:21.761Z,1024.72
2017-01-25T02:57:21.728Z,1024.71
2017-01-25T02:58:21.694Z,1024.72
2017-01-25T02:59:21.665Z,1024.69
2017-01-25T03:00:21.636Z,1024.68
2017-01-25T03:01:21.604Z,1024.67
2017-01-25T03:02:21.587Z,1024.63
2017-01-25T03:03:21.544Z,1024.68
2017-01-25T03:04:21.515Z,1024.66
2017-01-25T03:05:21.484Z,1024.67
2017-01-25T03:06:21.455Z,1024.74
2017-01-25T03:07:21.426Z,1024.68
2017-01-25T03:08:21.394Z,1024.72
2017-01-25T03:09:21.367Z,1024.71
2017-01-25T03:10:21.333Z,1024.69
2017-01-25T03:11:21.311Z,1024.68
2017-01-25T03:12:21.273Z,1024.71
2017-01-25T03:13:21.292Z,1024.62
2017-01-25T03:14:21.213Z,1024.64
2017-01-25T03:15:21.181Z,1024.71
2017-01-25T03:16:21.157Z,1024.74
2017-01-25T03:17:21.123Z,1024.74
2017-01-25T03:18:21.096Z,1024.71
2017-01-25T03:19:21.066Z,1024.73
2017-01-25T03:20:21.032Z,1024.74
2017-01-25T03:21:21.002Z,1024.73
2017-01-25T03:22:20.971Z,1024.74
2017-01-25T03:23:20.947Z,1024.67
2017-01-25T03:24:20.913Z,1024.62
2017-01-25T03:25:20.885Z,1024.65
2017-01-25T03:26:20.852Z,1024.64
2017-01-25T03:27:20.823Z,1024.62
2017-01-25T03:28:21.092Z,1024.63
2017-01-25T03:29:20.762Z,1024.63
2017-01-25T03:30:20.731Z,1024.68
2017-01-25T03:31:20.702Z,1024.65
2017-01-25T03:32:20.671Z,1024.74
2017-01-25T03:33:20.642Z,1024.66
2017-01-25T03:34:20.610Z,1024.65
2017-01-25T03:35:20.580Z,1024.72
2017-01-25T03:36:20.552Z,1024.68
2017-01-25T03:37:20.521Z,1024.65
2017-01-25T03:38:20.492Z,1024.62
2017-01-25T03:39:20.463Z,1024.66
2017-01-25T03:40:20.432Z,1024.66
2017-01-25T03:41:20.399Z,1024.64
2017-01-25T03:42:20.373Z,1024.67
2017-01-25T03:43:20.343Z,1024.66
2017-01-25T03:44:20.312Z,1024.68
2017-01-25T03:45:20.281Z,1024.69
2017-01-25T03:46:20.251Z,1024.7
2017-01-25T03:47:20.223Z,1024.72
2017-01-25T03:48:20.201Z,1024.74
2017-01-25T03:49:20.162Z,1024.73
2017-01-25T03:50:20.130Z,1024.77
2017-01-25T03:51:20.102Z,1024.74
2017-01-25T03:52:20.069Z,1024.73
2017-01-25T03:53:20.042Z,1024.73
2017-01-25T03:54:20.013Z,1024.73
2017-01-25T03:55:19.981Z,1024.72
2017-01-25T03:56:19.954Z,1024.69
2017-01-25T03:57:19.921Z,1024.75
2017-01-25T03:58:19.894Z,1024.71
2017-01-25T03:59:19.865Z,1024.72
2017-01-25T04:00:19.831Z,1024.64
2017-01-25T04:01:19.802Z,1024.65
2017-01-25T04:02:19.771Z,1024.68
2017-01-25T04:03:19.738Z,1024.59
2017-01-25T04:04:19.755Z,1024.63
2017-01-25T04:05:19.680Z,1024.58
2017-01-25T04:06:19.649Z,1024.63
2017-01-25T04:07:19.619Z,1024.62
2017-01-25T04:08:19.589Z,1024.64
2017-01-25T04:09:19.560Z,1024.61
2017-01-25T04:10:19.529Z,1024.58
2017-01-25T04:11:19.499Z,1024.62
2017-01-25T04:12:19.467Z,1024.61
2017-01-25T04:13:19.439Z,1024.71
2017-01-25T04:14:19.407Z,1024.74
2017-01-25T04:15:19.375Z,1024.72
2017-01-25T04:16:19.347Z,1024.76
2017-01-25T04:17:19.316Z,1024.74
2017-01-25T04:18:19.287Z,1024.79
2017-01-25T04:19:19.256Z,1024.78
2017-01-25T04:20:19.226Z,1024.78
2017-01-25T04:21:19.193Z,1024.76
2017-01-25T04:22:19.168Z,1024.78
2017-01-25T04:23:19.136Z,1024.82
2017-01-25T04:24:19.106Z,1024.85
2017-01-25T04:25:19.074Z,1024.85
2017-01-25T04:26:19.044Z,1024.85
2017-01-25T04:27:19.017Z,1024.87
2017-01-25T04:28:18.983Z,1024.87
2017-01-25T04:29:18.953Z,1024.89
2017-01-25T04:30:18.925Z,1024.89
2017-01-25T04:31:18.893Z,1024.82
2017-01-25T04:32:18.869Z,1024.88
2017-01-25T04:33:18.835Z,1024.85
2017-01-25T04:34:18.801Z,1024.91
2017-01-25T04:35:18.772Z,1024.88
2017-01-25T04:36:18.740Z,1024.89
2017-01-25T04:37:18.710Z,1024.87
2017-01-25T04:38:18.678Z,1024.92
2017-01-25T04:39:18.648Z,1024.9
2017-01-25T04:40:18.621Z,1024.9
2017-01-25T04:41:18.590Z,1024.94
2017-01-25T04:42:18.561Z,1024.91
2017-01-25T04:43:18.528Z,1024.94
2017-01-25T04:44:18.496Z,1024.99
2017-01-25T04:45:18.467Z,1025
2017-01-25T04:46:18.434Z,1024.99
2017-01-25T04:47:18.416Z,1024.97
2017-01-25T04:48:18.384Z,1025.03
2017-01-25T04:49:18.345Z,1024.97
2017-01-25T04:50:18.314Z,1024.95
2017-01-25T04:51:18.286Z,1025
2017-01-25T04:52:18.255Z,1025.02
2017-01-25T04:53:18.224Z,1024.97
2017-01-25T04:54:18.196Z,1024.95
2017-01-25T04:55:18.165Z,1024.96
2017-01-25T04:56:18.383Z,1024.98
2017-01-25T04:57:18.107Z,1024.99
2017-01-25T04:58:18.071Z,1025.02
2017-01-25T04:59:18.045Z,1024.94
2017-01-25T05:00:18.013Z,1024.99
2017-01-25T05:01:17.980Z,1024.97
2017-01-25T05:02:17.951Z,1024.99
2017-01-25T05:03:17.920Z,1024.95
2017-01-25T05:04:17.890Z,1024.99
2017-01-25T05:05:17.860Z,1024.98
2017-01-25T05:06:17.828Z,1024.93
2017-01-25T05:07:17.804Z,1024.92
2017-01-25T05:08:17.767Z,1024.9
2017-01-25T05:09:17.748Z,1024.97
2017-01-25T05:10:17.707Z,1024.93
2017-01-25T05:11:17.676Z,1024.92
2017-01-25T05:12:17.645Z,1024.91
2017-01-25T05:13:17.616Z,1024.92
2017-01-25T05:14:17.585Z,1024.9
2017-01-25T05:15:17.553Z,1024.93
2017-01-25T05:16:17.520Z,1024.86
2017-01-25T05:17:17.493Z,1024.89
2017-01-25T05:18:17.463Z,1024.9
2017-01-25T05:19:17.430Z,1024.88
2017-01-25T05:20:17.404Z,1024.91
2017-01-25T05:21:17.370Z,1024.93
2017-01-25T05:22:17.338Z,1024.97
2017-01-25T05:23:17.311Z,1024.91
2017-01-25T05:24:17.282Z,1024.96
2017-01-25T05:25:17.247Z,1024.93
2017-01-25T05:26:17.220Z,1024.93
2017-01-25T05:27:17.207Z,1024.96
2017-01-25T05:28:17.155Z,1024.94
2017-01-25T05:29:17.147Z,1024.94
2017-01-25T05:30:17.095Z,1024.99
2017-01-25T05:31:17.062Z,1025.02
2017-01-25T05:32:17.032Z,1025.02
2017-01-25T05:33:17.005Z,1025.02
2017-01-25T05:34:16.974Z,1024.97
2017-01-25T05:35:16.941Z,1025.01
2017-01-25T05:36:16.911Z,1025.03
2017-01-25T05:37:16.930Z,1025.05
2017-01-25T05:38:16.848Z,1025.02
2017-01-25T05:39:16.819Z,1025.06
2017-01-25T05:40:16.788Z,1024.97
2017-01-25T05:41:16.759Z,1025
2017-01-25T05:42:16.730Z,1024.99
2017-01-25T05:43:16.696Z,1024.91
2017-01-25T05:44:16.665Z,1024.95
2017-01-25T05:45:16.637Z,1025
2017-01-25T05:46:16.604Z,1025.02
2017-01-25T05:47:16.570Z,1025.05
2017-01-25T05:48:16.539Z,1025.05
2017-01-25T05:49:16.514Z,1025.09
2017-01-25T05:50:16.481Z,1025.04
2017-01-25T05:51:16.449Z,1025.04
2017-01-25T05:52:16.423Z,1025.04
2017-01-25T05:53:16.389Z,1025.02
2017-01-25T05:54:16.358Z,1025.03
2017-01-25T05:55:16.326Z,1025.07
2017-01-25T05:56:16.296Z,1025.06
2017-01-25T05:57:16.266Z,1025.03
2017-01-25T05:58:16.236Z,1025.04
2017-01-25T05:59:16.203Z,1025.09
2017-01-25T06:00:16.175Z,1025.05
2017-01-25T06:01:16.143Z,1025.04
2017-01-25T06:02:16.112Z,1025.03
2017-01-25T06:03:16.081Z,1025.02
2017-01-25T06:04:16.052Z,1025.05
2017-01-25T06:05:16.020Z,1025.07
2017-01-25T06:06:15.990Z,1025.11
2017-01-25T06:07:15.958Z,1025.13
2017-01-25T06:08:15.927Z,1025.14
2017-01-25T06:09:15.901Z,1025.12
2017-01-25T06:10:15.866Z,1025.13
2017-01-25T06:11:15.837Z,1025.15
2017-01-25T06:12:15.806Z,1025.16
2017-01-25T06:13:15.778Z,1025.14
2017-01-25T06:14:15.743Z,1025.14
2017-01-25T06:15:15.714Z,1025.15
2017-01-25T06:16:15.681Z,1025.13
2017-01-25T06:17:15.653Z,1025.17
2017-01-25T06:18:15.620Z,1025.13
2017-01-25T06:19:15.589Z,1025.18
2017-01-25T06:20:15.561Z,1025.19
2017-01-25T06:21:15.530Z,1025.17
2017-01-25T06:22:15.501Z,1025.15
2017-01-25T06:23:15.467Z,1025.16
2017-01-25T06:24:15.437Z,1025.09
2017-01-25T06:25:15.405Z,1025.11
2017-01-25T06:26:15.378Z,1025.13
2017-01-25T06:27:15.344Z,1025.11
2017-01-25T06:28:15.315Z,1025.16
2017-01-25T06:29:15.285Z,1025.18
2017-01-25T06:30:15.254Z,1025.13
2017-01-25T06:31:15.225Z,1025.15
2017-01-25T06:32:15.190Z,1025.18
2017-01-25T06:33:15.164Z,1025.12
2017-01-25T06:34:15.129Z,1025.14
2017-01-25T06:35:15.099Z,1025.18
2017-01-25T06:36:15.067Z,1025.15
2017-01-25T06:37:15.038Z,1025.22
2017-01-25T06:38:15.007Z,1025.19
2017-01-25T06:39:14.975Z,1025.19
2017-01-25T06:40:14.944Z,1025.18
2017-01-25T06:41:14.915Z,1025.21
2017-01-25T06:42:14.883Z,1025.29
2017-01-25T06:43:14.853Z,1025.26
2017-01-25T06:44:14.821Z,1025.28
2017-01-25T06:45:14.789Z,1025.23
2017-01-25T06:46:14.760Z,1025.29
2017-01-25T06:47:14.729Z,1025.3
2017-01-25T06:48:14.699Z,1025.33
2017-01-25T06:49:14.667Z,1025.32
2017-01-25T06:50:14.637Z,1025.34
2017-01-25T06:51:14.606Z,1025.3
2017-01-25T06:52:14.575Z,1025.29
2017-01-25T06:53:14.544Z,1025.26
2017-01-25T06:54:14.513Z,1025.33
2017-01-25T06:55:14.483Z,1025.35
2017-01-25T06:56:14.454Z,1025.38
2017-01-25T06:57:14.475Z,1025.43
2017-01-25T06:58:14.391Z,1025.4
2017-01-25T06:59:14.369Z,1025.41
2017-01-25T07:00:14.357Z,1025.46
2017-01-25T07:01:14.302Z,1025.45
2017-01-25T07:02:14.268Z,1025.44
2017-01-25T07:03:14.240Z,1025.44
2017-01-25T07:04:14.211Z,1025.48
2017-01-25T07:05:14.176Z,1025.46
2017-01-25T07:06:14.146Z,1025.49
2017-01-25T07:07:14.117Z,1025.48
2017-01-25T07:08:14.084Z,1025.47
2017-01-25T07:09:14.058Z,1025.53
2017-01-25T07:10:14.022Z,1025.58
2017-01-25T07:11:13.991Z,1025.47
2017-01-25T07:12:13.966Z,1025.5
2017-01-25T07:13:13.929Z,1025.54
2017-01-25T07:14:13.899Z,1025.5
2017-01-25T07:15:13.868Z,1025.58
2017-01-25T07:16:13.837Z,1025.53
2017-01-25T07:17:13.856Z,1025.56
2017-01-25T07:18:13.776Z,1025.62
2017-01-25T07:19:13.745Z,1025.59
2017-01-25T07:20:13.713Z,1025.58
2017-01-25T07:21:13.684Z,1025.57
2017-01-25T07:22:13.654Z,1025.55
2017-01-25T07:23:13.626Z,1025.56
2017-01-25T07:24:13.591Z,1025.6
2017-01-25T07:25:13.562Z,1025.6
2017-01-25T07:26:13.531Z,1025.54
2017-01-25T07:27:13.497Z,1025.58
2017-01-25T07:28:13.468Z,1025.61
2017-01-25T07:29:13.486Z,1025.63
2017-01-25T07:30:13.408Z,1025.61
2017-01-25T07:31:13.376Z,1025.66
2017-01-25T07:32:13.345Z,1025.7
2017-01-25T07:33:13.313Z,1025.7
2017-01-25T07:34:13.285Z,1025.71
2017-01-25T07:35:13.256Z,1025.71
2017-01-25T07:36:13.223Z,1025.71
2017-01-25T07:37:13.195Z,1025.71
2017-01-25T07:38:13.164Z,1025.66
2017-01-25T07:39:13.129Z,1025.69
2017-01-25T07:40:13.099Z,1025.71
2017-01-25T07:41:13.068Z,1025.75
2017-01-25T07:42:13.037Z,1025.71
2017-01-25T07:43:13.004Z,1025.72
2017-01-25T07:44:12.977Z,1025.73
2017-01-25T07:45:12.946Z,1025.73
2017-01-25T07:46:12.911Z,1025.76
2017-01-25T07:47:12.909Z,1025.74
2017-01-25T07:48:12.860Z,1025.76
2017-01-25T07:49:12.824Z,1025.74
2017-01-25T07:50:12.793Z,1025.77
2017-01-25T07:51:12.763Z,1025.73
2017-01-25T07:52:12.784Z,1025.75
2017-01-25T07:53:12.704Z,1025.79
2017-01-25T07:54:12.674Z,1025.81
2017-01-25T07:55:12.644Z,1025.79
2017-01-25T07:56:12.612Z,1025.79
2017-01-25T07:57:12.581Z,1025.77
2017-01-25T07:58:12.556Z,1025.77
2017-01-25T07:59:12.525Z,1025.77
2017-01-25T08:00:12.496Z,1025.79
2017-01-25T08:01:12.464Z,1025.8
2017-01-25T08:02:12.435Z,1025.78
2017-01-25T08:03:12.406Z,1025.76
2017-01-25T08:04:12.424Z,1025.74
2017-01-25T08:05:12.397Z,1025.78
2017-01-25T08:06:12.317Z,1025.84
2017-01-25T08:07:12.285Z,1025.85
2017-01-25T08:08:12.256Z,1025.82
2017-01-25T08:09:12.232Z,1025.9
2017-01-25T08:10:12.197Z,1025.83
2017-01-25T08:11:12.168Z,1025.84
2017-01-25T08:12:12.145Z,1025.93
2017-01-25T08:13:12.109Z,1025.88
2017-01-25T08:14:12.080Z,1025.94
2017-01-25T08:15:12.050Z,1025.94
2017-01-25T08:16:12.021Z,1025.99
2017-01-25T08:17:11.992Z,1025.99
2017-01-25T08:18:11.963Z,1025.98
2017-01-25T08:19:11.936Z,1026.06
2017-01-25T08:20:11.906Z,1026.03
2017-01-25T08:21:11.878Z,1026.04
2017-01-25T08:22:11.852Z,1026.05
2017-01-25T08:23:11.820Z,1026.1
2017-01-25T08:24:11.794Z,1026.12
2017-01-25T08:25:11.766Z,1026.09
2017-01-25T08:26:11.739Z,1026.12
2017-01-25T08:27:11.710Z,1026.11
2017-01-25T08:28:11.683Z,1026.08
2017-01-25T08:29:11.651Z,1026.13
2017-01-25T08:30:11.625Z,1026.14
2017-01-25T08:31:11.596Z,1026.1
2017-01-25T08:32:11.570Z,1026.11
2017-01-25T08:33:11.544Z,1026.08
2017-01-25T08:34:11.519Z,1026.04
2017-01-25T08:35:11.490Z,1026.09
2017-01-25T08:36:11.461Z,1026.06
2017-01-25T08:37:11.435Z,1026.06
2017-01-25T08:38:11.406Z,1026.11
2017-01-25T08:39:11.378Z,1026.11
2017-01-25T08:40:11.348Z,1026.14
2017-01-25T08:41:11.328Z,1026.13
2017-01-25T08:42:11.298Z,1026.1
2017-01-25T08:43:11.278Z,1026.11
2017-01-25T08:44:11.246Z,1026.17
2017-01-25T08:45:11.219Z,1026.16
2017-01-25T08:46:11.193Z,1026.2
2017-01-25T08:47:11.168Z,1026.19
2017-01-25T08:48:11.139Z,1026.19
2017-01-25T08:49:11.116Z,1026.18
2017-01-25T08:50:11.087Z,1026.18
2017-01-25T08:51:11.064Z,1026.24
2017-01-25T08:52:11.038Z,1026.2
2017-01-25T08:53:11.008Z,1026.23
2017-01-25T08:54:10.984Z,1026.27
2017-01-25T08:55:10.958Z,1026.22
2017-01-25T08:56:10.934Z,1026.24
2017-01-25T08:57:10.906Z,1026.2
2017-01-25T08:58:10.882Z,1026.26
2017-01-25T08:59:10.856Z,1026.22
2017-01-25T09:00:10.832Z,1026.22
2017-01-25T09:01:10.804Z,1026.18
2017-01-25T09:02:10.778Z,1026.23
2017-01-25T09:03:10.753Z,1026.23
2017-01-25T09:04:10.729Z,1026.2
2017-01-25T09:05:10.703Z,1026.19
2017-01-25T09:06:10.681Z,1026.22
2017-01-25T09:07:10.653Z,1026.23
2017-01-25T09:08:10.627Z,1026.19
2017-01-25T09:09:10.603Z,1026.19
2017-01-25T09:10:10.576Z,1026.21
2017-01-25T09:11:10.551Z,1026.21
2017-01-25T09:12:10.525Z,1026.22
2017-01-25T09:13:10.499Z,1026.23
2017-01-25T09:14:10.472Z,1026.17
2017-01-25T09:15:10.446Z,1026.16
2017-01-25T09:16:10.425Z,1026.18
2017-01-25T09:17:10.392Z,1026.21
2017-01-25T09:18:10.369Z,1026.22
2017-01-25T09:19:10.345Z,1026.23
2017-01-25T09:20:10.320Z,1026.24
2017-01-25T09:21:10.288Z,1026.26
2017-01-25T09:22:10.266Z,1026.24
2017-01-25T09:23:10.232Z,1026.2
2017-01-25T09:24:10.208Z,1026.23
2017-01-25T09:25:10.182Z,1026.15
2017-01-25T09:26:10.153Z,1026.16
2017-01-25T09:27:10.126Z,1026.17
2017-01-25T09:28:10.100Z,1026.16
2017-01-25T09:29:10.074Z,1026.24
2017-01-25T09:30:10.048Z,1026.21
2017-01-25T09:31:10.017Z,1026.16
2017-01-25T09:32:09.991Z,1026.18
2017-01-25T09:33:09.962Z,1026.21
2017-01-25T09:34:09.936Z,1026.2
2017-01-25T09:35:09.909Z,1026.17
2017-01-25T09:36:09.881Z,1026.15
2017-01-25T09:37:09.854Z,1026.16
2017-01-25T09:38:09.828Z,1026.15
2017-01-25T09:39:09.799Z,1026.15
2017-01-25T09:40:09.771Z,1026.15
2017-01-25T09:41:09.745Z,1026.18
2017-01-25T09:42:09.718Z,1026.16
2017-01-25T09:43:09.689Z,1026.14
2017-01-25T09:44:09.666Z,1026.12
2017-01-25T09:45:09.628Z,1026.12
2017-01-25T09:46:09.601Z,1026.14
2017-01-25T09:47:09.572Z,1026.17
2017-01-25T09:48:09.544Z,1026.18
2017-01-25T09:49:09.520Z,1026.19
2017-01-25T09:50:09.493Z,1026.18
2017-01-25T09:51:09.459Z,1026.16
2017-01-25T09:52:09.434Z,1026.15
2017-01-25T09:53:09.405Z,1026.23
2017-01-25T09:54:09.381Z,1026.16
2017-01-25T09:55:09.352Z,1026.15
2017-01-25T09:56:09.324Z,1026.15
2017-01-25T09:57:09.292Z,1026.17
2017-01-25T09:58:09.315Z,1026.31
2017-01-25T09:59:09.238Z,1026.28
2017-01-25T10:00:09.210Z,1026.24
2017-01-25T10:01:09.182Z,1026.23
2017-01-25T10:02:09.158Z,1026.24
2017-01-25T10:03:09.130Z,1026.21
2017-01-25T10:04:09.097Z,1026.25
2017-01-25T10:05:09.069Z,1026.26
2017-01-25T10:06:09.043Z,1026.25
2017-01-25T10:07:09.016Z,1026.27
2017-01-25T10:08:08.989Z,1026.25
2017-01-25T10:09:08.962Z,1026.26
2017-01-25T10:10:08.933Z,1026.19
2017-01-25T10:11:08.956Z,1026.17
2017-01-25T10:12:08.877Z,1026.14
2017-01-25T10:13:08.847Z,1026.13
2017-01-25T10:14:08.827Z,1026.11
2017-01-25T10:15:08.796Z,1026.14
2017-01-25T10:16:08.762Z,1026.15
2017-01-25T10:17:08.737Z,1026.15
2017-01-25T10:18:08.709Z,1026.13
2017-01-25T10:19:08.683Z,1026.08
2017-01-25T10:20:08.655Z,1026.08
2017-01-25T10:21:08.629Z,1026.09
2017-01-25T10:22:08.602Z,1026.06
2017-01-25T10:23:08.569Z,1026.02
2017-01-25T10:24:08.548Z,1026.07
2017-01-25T10:25:08.517Z,1026.05
2017-01-25T10:26:08.493Z,1026.03
2017-01-25T10:27:08.465Z,1025.99
2017-01-25T10:28:08.433Z,1026.03
2017-01-25T10:29:08.403Z,1026.08
2017-01-25T10:30:08.376Z,1026.05
2017-01-25T10:31:08.353Z,1026.04
2017-01-25T10:32:08.324Z,1025.97
2017-01-25T10:33:08.302Z,1025.98
2017-01-25T10:34:08.268Z,1026.02
2017-01-25T10:35:08.243Z,1026
2017-01-25T10:36:08.213Z,1026.02
2017-01-25T10:37:08.183Z,1025.98
2017-01-25T10:38:08.156Z,1025.98
2017-01-25T10:39:08.133Z,1026.01
2017-01-25T10:40:08.105Z,1025.96
2017-01-25T10:41:08.073Z,1025.91
2017-01-25T10:42:08.049Z,1025.93
2017-01-25T10:43:08.024Z,1025.92
2017-01-25T10:44:07.995Z,1025.87
2017-01-25T10:45:07.965Z,1025.81
2017-01-25T10:46:07.944Z,1025.85
2017-01-25T10:47:07.914Z,1025.84
2017-01-25T10:48:07.886Z,1025.85
2017-01-25T10:49:07.862Z,1025.83
2017-01-25T10:50:07.847Z,1025.76
2017-01-25T10:51:07.803Z,1025.73
2017-01-25T10:52:07.776Z,1025.65
2017-01-25T10:53:07.750Z,1025.61
2017-01-25T10:54:07.728Z,1025.64
2017-01-25T10:55:07.695Z,1025.67
2017-01-25T10:56:07.666Z,1025.64
2017-01-25T10:57:07.638Z,1025.65
2017-01-25T10:58:07.615Z,1025.66
2017-01-25T10:59:07.588Z,1025.68
2017-01-25T11:00:07.558Z,1025.68
2017-01-25T11:01:07.536Z,1025.69
2017-01-25T11:02:07.504Z,1025.7
2017-01-25T11:03:07.481Z,1025.64
2017-01-25T11:04:07.452Z,1025.66
2017-01-25T11:05:07.529Z,1025.67
2017-01-25T11:06:07.395Z,1025.69
2017-01-25T11:07:07.373Z,1025.66
2017-01-25T11:08:07.345Z,1025.61
2017-01-25T11:09:07.316Z,1025.65
2017-01-25T11:10:07.290Z,1025.57
2017-01-25T11:11:07.261Z,1025.58
2017-01-25T11:12:07.237Z,1025.57
2017-01-25T11:13:07.207Z,1025.58
2017-01-25T11:14:07.185Z,1025.56
2017-01-25T11:15:07.158Z,1025.54
2017-01-25T11:16:07.129Z,1025.53
2017-01-25T11:17:07.100Z,1025.56
2017-01-25T11:18:07.078Z,1025.52
2017-01-25T11:19:07.053Z,1025.55
2017-01-25T11:20:07.019Z,1025.51
2017-01-25T11:21:07.043Z,1025.54
2017-01-25T11:22:06.969Z,1025.47
2017-01-25T11:23:06.940Z,1025.46
2017-01-25T11:24:07.212Z,1025.42
2017-01-25T11:25:06.889Z,1025.41
2017-01-25T11:26:06.860Z,1025.45
2017-01-25T11:27:06.830Z,1025.39
2017-01-25T11:28:06.803Z,1025.39
2017-01-25T11:29:06.781Z,1025.46
2017-01-25T11:30:07.050Z,1025.45
2017-01-25T11:31:06.724Z,1025.44
2017-01-25T11:32:06.696Z,1025.42
2017-01-25T11:33:06.670Z,1025.38
2017-01-25T11:34:06.642Z,1025.36
2017-01-25T11:35:06.620Z,1025.34
2017-01-25T11:36:06.634Z,1025.28
2017-01-25T11:37:06.562Z,1025.29
2017-01-25T11:38:06.539Z,1025.29
2017-01-25T11:39:06.507Z,1025.29
2017-01-25T11:40:06.480Z,1025.26
2017-01-25T11:41:06.453Z,1025.28
2017-01-25T11:42:06.429Z,1025.28
2017-01-25T11:43:06.398Z,1025.25
2017-01-25T11:44:06.371Z,1025.21
2017-01-25T11:45:06.351Z,1025.21
2017-01-25T11:46:06.321Z,1025.2
2017-01-25T11:47:06.289Z,1025.18
2017-01-25T11:48:06.264Z,1025.13
2017-01-25T11:49:06.243Z,1025.16
2017-01-25T11:50:06.210Z,1025.15
2017-01-25T11:51:06.184Z,1025.09
2017-01-25T11:52:06.155Z,1025.08
2017-01-25T11:53:06.131Z,1025.06
2017-01-25T11:54:06.106Z,1025.03
2017-01-25T11:55:06.081Z,1025.03
2017-01-25T11:56:06.058Z,1025.04
2017-01-25T11:57:06.021Z,1025.01
2017-01-25T11:58:05.999Z,1024.91
2017-01-25T11:59:05.967Z,1024.94
2017-01-25T12:00:05.989Z,1024.93
2017-01-25T12:01:05.916Z,1024.91
2017-01-25T12:02:05.889Z,1024.91
2017-01-25T12:03:05.860Z,1024.89
2017-01-25T12:04:05.834Z,1024.91
2017-01-25T12:05:05.807Z,1024.84
2017-01-25T12:06:05.778Z,1024.87
2017-01-25T12:07:05.751Z,1024.85